Beaver, WV

1:05 AM EDT on April 21, 2015 (GMT -0400)
Raleigh County Memorial | | Change Station
CLOSE
Current Station
Airport
Location: Beckley,
Elevation: 2513 ft
Nearby Weather Stations

Elev 2513 ft 37.79 °N, 81.12 °W | Updated 14 minutes ago

Mostly Cloudy
Mostly Cloudy
47 °F
Feels Like 47 °F
N
7
Wind Variable Wind from WNW

Today
High -- | Low -- °F
--% Chance of Precip.
Yesterday
High -- | Low -- °F
Precip. -- in
6:41 AM 8:05 PM
Waxing Crescent, 8% visible
Pressure 29.77 in
Visibility 10.0 miles
Clouds Scattered Clouds 1300 ft
Mostly Cloudy 1800 ft
Overcast 3800 ft
Dew Point 43 °F
Humidity 86%
Rainfall 0.00 in
Snow Depth Not available.
UV 0 out of 12
Pollen 8.40 out of 12
Air Quality Not available.
Flu Activity Sporadic
METAR KBKW 210451Z AUTO 29006KT 10SM SCT013 BKN018 OVC038 08/06 A2981 RMK AO2 RAE48 SLP079 P0000 T00830061 402220083

More Conditions Fewer Conditions

Pressure 29.77 in
Visibility 10.0 miles
Clouds Scattered Clouds 1300 ft
Mostly Cloudy 1800 ft
Overcast 3800 ft
Dew Point 43 °F
Humidity 86%
Rainfall 0.00 in
Snow Depth Not available.
UV 0 out of 12
Pollen 8.40 out of 12
Air Quality Not available.
Flu Activity Sporadic
METAR KBKW 210451Z AUTO 29006KT 10SM SCT013 BKN018 OVC038 08/06 A2981 RMK AO2 RAE48 SLP079 P0000 T00830061 402220083

More Conditions Fewer Conditions

10-Day Weather Forecast

Almanac

Astronomy

Apr. 21, 2015 Rise Set
Actual Time
Civil Twilight
Nautical Twilight
Astronomical Twilight
Moon
Length of Visible Light
Length of Day
Tomorrow will be .
, % of the Moon is Illuminated

Today's Extremes

State Highs State Lows

Community

WunderPhotos

Upload Photos

1,815,316 photos uploaded!

WunderBlogs® & News

Nearby

Air Quality

  Air Quality AQ Index Pollutant
Not available.

Snow Depth

Station Depth Elevation

Earthquake Activity

City Distance Mag. Time & Date
Minimum magnitude displayed is 2.5.

Coastal Water Temperatures

Place Temperature

Stations

Nearby Weather Stations

Station Location Temp. Windchill Dew Point Humidity Wind Precip. Elev Updated Type